sensor_id;sensor_type;location;lat;lon;timestamp;P1;durP1;ratioP1;P2;durP2;ratioP2
67508;SDS011;54354;44.724;11.284;2023-12-07T00:01:19;32.45;;;24.20;;
67508;SDS011;54354;44.724;11.284;2023-12-07T00:03:44;32.08;;;23.95;;
67508;SDS011;54354;44.724;11.284;2023-12-07T00:06:10;34.58;;;23.88;;
67508;SDS011;54354;44.724;11.284;2023-12-07T00:08:36;31.40;;;22.75;;
67508;SDS011;54354;44.724;11.284;2023-12-07T00:11:01;34.22;;;23.90;;
67508;SDS011;54354;44.724;11.284;2023-12-07T00:13:27;32.55;;;23.00;;
67508;SDS011;54354;44.724;11.284;2023-12-07T00:15:52;34.40;;;23.60;;
67508;SDS011;54354;44.724;11.284;2023-12-07T00:18:18;30.95;;;22.42;;
67508;SDS011;54354;44.724;11.284;2023-12-07T00:20:44;35.85;;;23.33;;
67508;SDS011;54354;44.724;11.284;2023-12-07T00:23:10;33.90;;;22.50;;
67508;SDS011;54354;44.724;11.284;2023-12-07T00:25:36;32.80;;;22.48;;
67508;SDS011;54354;44.724;11.284;2023-12-07T00:28:01;32.60;;;22.38;;
67508;SDS011;54354;44.724;11.284;2023-12-07T00:30:28;31.60;;;21.58;;
67508;SDS011;54354;44.724;11.284;2023-12-07T00:32:53;29.67;;;20.77;;
67508;SDS011;54354;44.724;11.284;2023-12-07T00:35:19;32.17;;;21.00;;
67508;SDS011;54354;44.724;11.284;2023-12-07T00:37:47;29.55;;;21.30;;
67508;SDS011;54354;44.724;11.284;2023-12-07T00:40:13;28.25;;;20.20;;
67508;SDS011;54354;44.724;11.284;2023-12-07T00:42:39;28.38;;;20.73;;
67508;SDS011;54354;44.724;11.284;2023-12-07T00:45:05;30.88;;;20.23;;
67508;SDS011;54354;44.724;11.284;2023-12-07T00:47:30;29.33;;;20.52;;
67508;SDS011;54354;44.724;11.284;2023-12-07T00:49:56;26.15;;;20.00;;
67508;SDS011;54354;44.724;11.284;2023-12-07T00:52:21;26.63;;;19.05;;
67508;SDS011;54354;44.724;11.284;2023-12-07T00:54:47;24.88;;;18.65;;
67508;SDS011;54354;44.724;11.284;2023-12-07T00:57:12;27.75;;;19.95;;
67508;SDS011;54354;44.724;11.284;2023-12-07T00:59:38;29.88;;;19.48;;
67508;SDS011;54354;44.724;11.284;2023-12-07T01:02:03;25.55;;;19.25;;
67508;SDS011;54354;44.724;11.284;2023-12-07T01:04:30;29.17;;;19.17;;
67508;SDS011;54354;44.724;11.284;2023-12-07T01:06:56;29.65;;;20.38;;
67508;SDS011;54354;44.724;11.284;2023-12-07T01:09:22;25.58;;;18.20;;
67508;SDS011;54354;44.724;11.284;2023-12-07T01:11:49;24.88;;;18.98;;
67508;SDS011;54354;44.724;11.284;2023-12-07T01:14:15;25.58;;;19.70;;
67508;SDS011;54354;44.724;11.284;2023-12-07T01:16:41;26.75;;;18.48;;
67508;SDS011;54354;44.724;11.284;2023-12-07T01:19:08;27.80;;;19.20;;
67508;SDS011;54354;44.724;11.284;2023-12-07T01:21:33;26.30;;;18.98;;
67508;SDS011;54354;44.724;11.284;2023-12-07T01:23:59;26.77;;;18.85;;
67508;SDS011;54354;44.724;11.284;2023-12-07T01:26:24;25.33;;;19.80;;
67508;SDS011;54354;44.724;11.284;2023-12-07T01:28:50;26.33;;;19.35;;
67508;SDS011;54354;44.724;11.284;2023-12-07T01:31:16;25.83;;;19.05;;
67508;SDS011;54354;44.724;11.284;2023-12-07T01:33:42;24.38;;;18.50;;
67508;SDS011;54354;44.724;11.284;2023-12-07T01:36:08;25.17;;;18.20;;
67508;SDS011;54354;44.724;11.284;2023-12-07T01:38:34;24.23;;;18.00;;
67508;SDS011;54354;44.724;11.284;2023-12-07T01:40:59;26.30;;;17.52;;
67508;SDS011;54354;44.724;11.284;2023-12-07T01:43:25;23.05;;;16.38;;
67508;SDS011;54354;44.724;11.284;2023-12-07T01:45:51;21.25;;;16.02;;
67508;SDS011;54354;44.724;11.284;2023-12-07T01:48:21;20.27;;;16.00;;
67508;SDS011;54354;44.724;11.284;2023-12-07T01:50:48;20.65;;;15.90;;
67508;SDS011;54354;44.724;11.284;2023-12-07T01:53:14;19.83;;;15.15;;
67508;SDS011;54354;44.724;11.284;2023-12-07T01:55:40;22.17;;;15.93;;
67508;SDS011;54354;44.724;11.284;2023-12-07T01:58:06;23.98;;;16.48;;
67508;SDS011;54354;44.724;11.284;2023-12-07T02:00:32;20.67;;;15.93;;
67508;SDS011;54354;44.724;11.284;2023-12-07T02:02:59;23.35;;;16.23;;
67508;SDS011;54354;44.724;11.284;2023-12-07T02:05:25;23.77;;;16.67;;
67508;SDS011;54354;44.724;11.284;2023-12-07T02:07:51;22.30;;;15.60;;
67508;SDS011;54354;44.724;11.284;2023-12-07T02:10:17;21.13;;;16.23;;
67508;SDS011;54354;44.724;11.284;2023-12-07T02:12:44;24.90;;;16.25;;
67508;SDS011;54354;44.724;11.284;2023-12-07T02:15:10;22.05;;;16.45;;
67508;SDS011;54354;44.724;11.284;2023-12-07T02:18:10;22.75;;;16.17;;
67508;SDS011;54354;44.724;11.284;2023-12-07T02:23:06;23.38;;;17.23;;
67508;SDS011;54354;44.724;11.284;2023-12-07T02:25:37;23.13;;;16.90;;
67508;SDS011;54354;44.724;11.284;2023-12-07T02:28:12;21.50;;;16.67;;
67508;SDS011;54354;44.724;11.284;2023-12-07T02:30:37;25.05;;;16.83;;
67508;SDS011;54354;44.724;11.284;2023-12-07T02:33:03;22.27;;;16.27;;
67508;SDS011;54354;44.724;11.284;2023-12-07T02:35:30;24.70;;;17.15;;
67508;SDS011;54354;44.724;11.284;2023-12-07T02:37:56;25.02;;;16.27;;
67508;SDS011;54354;44.724;11.284;2023-12-07T02:40:24;26.05;;;17.33;;
67508;SDS011;54354;44.724;11.284;2023-12-07T02:42:51;26.33;;;17.83;;
67508;SDS011;54354;44.724;11.284;2023-12-07T02:45:18;22.45;;;17.05;;
67508;SDS011;54354;44.724;11.284;2023-12-07T02:47:43;22.02;;;16.75;;
67508;SDS011;54354;44.724;11.284;2023-12-07T02:50:10;21.08;;;16.15;;
67508;SDS011;54354;44.724;11.284;2023-12-07T02:52:36;20.38;;;15.32;;
67508;SDS011;54354;44.724;11.284;2023-12-07T02:55:02;22.25;;;15.32;;
67508;SDS011;54354;44.724;11.284;2023-12-07T02:57:27;20.40;;;15.77;;
67508;SDS011;54354;44.724;11.284;2023-12-07T02:59:54;21.13;;;14.55;;
67508;SDS011;54354;44.724;11.284;2023-12-07T03:02:20;21.98;;;14.80;;
67508;SDS011;54354;44.724;11.284;2023-12-07T03:04:45;17.27;;;14.20;;
67508;SDS011;54354;44.724;11.284;2023-12-07T03:07:11;17.95;;;14.48;;
67508;SDS011;54354;44.724;11.284;2023-12-07T03:09:36;21.00;;;14.93;;
67508;SDS011;54354;44.724;11.284;2023-12-07T03:12:02;19.67;;;14.60;;
67508;SDS011;54354;44.724;11.284;2023-12-07T03:14:28;21.77;;;14.73;;
67508;SDS011;54354;44.724;11.284;2023-12-07T03:16:53;19.45;;;14.05;;
67508;SDS011;54354;44.724;11.284;2023-12-07T03:19:19;18.63;;;14.70;;
67508;SDS011;54354;44.724;11.284;2023-12-07T03:21:44;19.10;;;13.90;;
67508;SDS011;54354;44.724;11.284;2023-12-07T03:24:10;21.33;;;14.73;;
67508;SDS011;54354;44.724;11.284;2023-12-07T03:26:36;17.67;;;14.40;;
67508;SDS011;54354;44.724;11.284;2023-12-07T03:29:02;18.48;;;14.27;;
67508;SDS011;54354;44.724;11.284;2023-12-07T03:31:28;18.33;;;14.77;;
67508;SDS011;54354;44.724;11.284;2023-12-07T03:33:54;18.25;;;14.68;;
67508;SDS011;54354;44.724;11.284;2023-12-07T03:36:20;20.15;;;13.95;;
67508;SDS011;54354;44.724;11.284;2023-12-07T03:38:47;18.95;;;14.15;;
67508;SDS011;54354;44.724;11.284;2023-12-07T03:41:13;21.00;;;14.40;;
67508;SDS011;54354;44.724;11.284;2023-12-07T03:43:38;19.55;;;15.13;;
67508;SDS011;54354;44.724;11.284;2023-12-07T03:46:04;19.25;;;14.05;;
67508;SDS011;54354;44.724;11.284;2023-12-07T03:48:30;18.77;;;13.60;;
67508;SDS011;54354;44.724;11.284;2023-12-07T03:50:56;19.60;;;14.30;;
67508;SDS011;54354;44.724;11.284;2023-12-07T03:53:22;19.15;;;13.43;;
67508;SDS011;54354;44.724;11.284;2023-12-07T03:55:47;17.88;;;13.70;;
67508;SDS011;54354;44.724;11.284;2023-12-07T03:58:13;18.70;;;14.07;;
67508;SDS011;54354;44.724;11.284;2023-12-07T04:00:39;16.70;;;13.40;;
67508;SDS011;54354;44.724;11.284;2023-12-07T04:03:04;18.45;;;13.23;;
67508;SDS011;54354;44.724;11.284;2023-12-07T04:05:30;18.88;;;13.18;;
67508;SDS011;54354;44.724;11.284;2023-12-07T04:07:57;18.42;;;13.55;;
67508;SDS011;54354;44.724;11.284;2023-12-07T04:10:22;17.02;;;13.10;;
67508;SDS011;54354;44.724;11.284;2023-12-07T04:12:48;18.83;;;13.48;;
67508;SDS011;54354;44.724;11.284;2023-12-07T04:15:14;16.73;;;12.73;;
67508;SDS011;54354;44.724;11.284;2023-12-07T04:17:39;16.20;;;12.55;;
67508;SDS011;54354;44.724;11.284;2023-12-07T04:20:05;19.02;;;13.45;;
67508;SDS011;54354;44.724;11.284;2023-12-07T04:22:32;20.90;;;15.02;;
67508;SDS011;54354;44.724;11.284;2023-12-07T04:24:58;25.67;;;17.33;;
67508;SDS011;54354;44.724;11.284;2023-12-07T04:27:24;33.28;;;20.05;;
67508;SDS011;54354;44.724;11.284;2023-12-07T04:29:49;36.60;;;22.92;;
67508;SDS011;54354;44.724;11.284;2023-12-07T04:32:15;40.08;;;25.50;;
67508;SDS011;54354;44.724;11.284;2023-12-07T04:34:41;37.60;;;23.88;;
67508;SDS011;54354;44.724;11.284;2023-12-07T04:37:06;35.15;;;22.52;;
67508;SDS011;54354;44.724;11.284;2023-12-07T04:39:32;23.33;;;16.98;;
67508;SDS011;54354;44.724;11.284;2023-12-07T04:41:57;25.45;;;16.67;;
67508;SDS011;54354;44.724;11.284;2023-12-07T04:44:23;27.70;;;16.48;;
67508;SDS011;54354;44.724;11.284;2023-12-07T04:46:50;21.52;;;15.95;;
67508;SDS011;54354;44.724;11.284;2023-12-07T04:49:16;19.05;;;14.52;;
67508;SDS011;54354;44.724;11.284;2023-12-07T04:51:42;18.00;;;13.50;;
67508;SDS011;54354;44.724;11.284;2023-12-07T04:54:12;20.65;;;12.63;;
67508;SDS011;54354;44.724;11.284;2023-12-07T04:56:40;16.15;;;11.85;;
67508;SDS011;54354;44.724;11.284;2023-12-07T04:59:06;18.40;;;11.63;;
67508;SDS011;54354;44.724;11.284;2023-12-07T05:01:31;14.90;;;12.15;;
67508;SDS011;54354;44.724;11.284;2023-12-07T05:03:57;15.30;;;11.30;;
67508;SDS011;54354;44.724;11.284;2023-12-07T05:06:22;13.70;;;11.30;;
67508;SDS011;54354;44.724;11.284;2023-12-07T05:08:48;12.40;;;10.85;;
67508;SDS011;54354;44.724;11.284;2023-12-07T05:11:13;14.68;;;10.93;;
67508;SDS011;54354;44.724;11.284;2023-12-07T05:13:39;14.98;;;11.77;;
67508;SDS011;54354;44.724;11.284;2023-12-07T05:16:05;18.77;;;14.07;;
67508;SDS011;54354;44.724;11.284;2023-12-07T05:18:30;14.77;;;11.48;;
67508;SDS011;54354;44.724;11.284;2023-12-07T05:20:56;15.80;;;11.45;;
67508;SDS011;54354;44.724;11.284;2023-12-07T05:23:21;15.13;;;11.57;;
67508;SDS011;54354;44.724;11.284;2023-12-07T05:25:47;14.98;;;11.85;;
67508;SDS011;54354;44.724;11.284;2023-12-07T05:28:12;15.55;;;11.30;;
67508;SDS011;54354;44.724;11.284;2023-12-07T05:30:38;14.88;;;11.40;;
67508;SDS011;54354;44.724;11.284;2023-12-07T05:33:03;15.85;;;11.25;;
67508;SDS011;54354;44.724;11.284;2023-12-07T05:35:29;15.00;;;11.18;;
67508;SDS011;54354;44.724;11.284;2023-12-07T05:37:55;16.10;;;11.68;;
67508;SDS011;54354;44.724;11.284;2023-12-07T05:40:20;15.02;;;11.18;;
67508;SDS011;54354;44.724;11.284;2023-12-07T05:42:49;14.75;;;11.05;;
67508;SDS011;54354;44.724;11.284;2023-12-07T05:45:15;14.20;;;11.32;;
67508;SDS011;54354;44.724;11.284;2023-12-07T05:47:41;14.07;;;12.05;;
67508;SDS011;54354;44.724;11.284;2023-12-07T05:50:07;13.82;;;11.52;;
67508;SDS011;54354;44.724;11.284;2023-12-07T05:52:33;14.75;;;11.50;;
67508;SDS011;54354;44.724;11.284;2023-12-07T05:54:59;14.68;;;10.80;;
67508;SDS011;54354;44.724;11.284;2023-12-07T05:57:24;17.85;;;11.07;;
67508;SDS011;54354;44.724;11.284;2023-12-07T05:59:50;16.73;;;11.32;;
67508;SDS011;54354;44.724;11.284;2023-12-07T06:02:16;13.50;;;11.07;;
67508;SDS011;54354;44.724;11.284;2023-12-07T06:04:41;15.20;;;10.85;;
67508;SDS011;54354;44.724;11.284;2023-12-07T06:07:07;14.98;;;10.73;;
67508;SDS011;54354;44.724;11.284;2023-12-07T06:09:33;14.18;;;10.50;;
67508;SDS011;54354;44.724;11.284;2023-12-07T06:11:59;15.15;;;10.18;;
67508;SDS011;54354;44.724;11.284;2023-12-07T06:14:25;18.15;;;10.40;;
67508;SDS011;54354;44.724;11.284;2023-12-07T06:16:50;11.15;;;9.90;;
67508;SDS011;54354;44.724;11.284;2023-12-07T06:19:16;15.43;;;10.25;;
67508;SDS011;54354;44.724;11.284;2023-12-07T06:21:43;13.82;;;11.23;;
67508;SDS011;54354;44.724;11.284;2023-12-07T06:24:09;16.88;;;11.07;;
67508;SDS011;54354;44.724;11.284;2023-12-07T06:26:35;15.75;;;10.60;;
67508;SDS011;54354;44.724;11.284;2023-12-07T06:29:01;11.45;;;10.25;;
67508;SDS011;54354;44.724;11.284;2023-12-07T06:31:27;16.63;;;10.60;;
67508;SDS011;54354;44.724;11.284;2023-12-07T06:33:53;15.77;;;10.48;;
67508;SDS011;54354;44.724;11.284;2023-12-07T06:36:21;18.10;;;10.35;;
67508;SDS011;54354;44.724;11.284;2023-12-07T06:38:47;16.13;;;10.13;;
67508;SDS011;54354;44.724;11.284;2023-12-07T06:41:14;13.70;;;9.98;;
67508;SDS011;54354;44.724;11.284;2023-12-07T06:43:41;15.68;;;10.98;;
67508;SDS011;54354;44.724;11.284;2023-12-07T06:46:06;16.60;;;11.02;;
67508;SDS011;54354;44.724;11.284;2023-12-07T06:48:32;14.98;;;10.30;;
67508;SDS011;54354;44.724;11.284;2023-12-07T06:50:58;18.75;;;10.93;;
67508;SDS011;54354;44.724;11.284;2023-12-07T06:53:23;18.10;;;10.80;;
67508;SDS011;54354;44.724;11.284;2023-12-07T06:55:49;20.70;;;12.13;;
67508;SDS011;54354;44.724;11.284;2023-12-07T06:58:14;16.90;;;11.18;;
67508;SDS011;54354;44.724;11.284;2023-12-07T07:00:40;21.42;;;10.90;;
67508;SDS011;54354;44.724;11.284;2023-12-07T07:03:06;20.42;;;10.57;;
67508;SDS011;54354;44.724;11.284;2023-12-07T07:05:31;18.05;;;10.50;;
67508;SDS011;54354;44.724;11.284;2023-12-07T07:07:57;18.02;;;9.20;;
67508;SDS011;54354;44.724;11.284;2023-12-07T07:10:23;23.58;;;9.85;;
67508;SDS011;54354;44.724;11.284;2023-12-07T07:12:49;17.83;;;10.00;;
67508;SDS011;54354;44.724;11.284;2023-12-07T07:15:15;17.80;;;11.63;;
67508;SDS011;54354;44.724;11.284;2023-12-07T07:17:41;29.27;;;14.68;;
67508;SDS011;54354;44.724;11.284;2023-12-07T07:20:10;13.85;;;10.50;;
67508;SDS011;54354;44.724;11.284;2023-12-07T07:22:39;19.20;;;10.43;;
67508;SDS011;54354;44.724;11.284;2023-12-07T07:25:05;19.35;;;10.40;;
67508;SDS011;54354;44.724;11.284;2023-12-07T07:27:31;21.77;;;9.25;;
67508;SDS011;54354;44.724;11.284;2023-12-07T07:29:57;16.50;;;8.30;;
67508;SDS011;54354;44.724;11.284;2023-12-07T07:32:23;13.20;;;7.93;;
67508;SDS011;54354;44.724;11.284;2023-12-07T07:34:51;19.92;;;8.13;;
67508;SDS011;54354;44.724;11.284;2023-12-07T07:37:19;14.85;;;8.15;;
67508;SDS011;54354;44.724;11.284;2023-12-07T07:39:49;15.30;;;7.07;;
67508;SDS011;54354;44.724;11.284;2023-12-07T07:42:18;13.73;;;6.68;;
67508;SDS011;54354;44.724;11.284;2023-12-07T07:44:46;10.30;;;6.10;;
67508;SDS011;54354;44.724;11.284;2023-12-07T07:47:12;12.95;;;5.65;;
67508;SDS011;54354;44.724;11.284;2023-12-07T07:49:40;9.80;;;5.47;;
67508;SDS011;54354;44.724;11.284;2023-12-07T07:52:06;13.70;;;5.75;;
67508;SDS011;54354;44.724;11.284;2023-12-07T07:54:34;10.35;;;5.80;;
67508;SDS011;54354;44.724;11.284;2023-12-07T07:57:02;6.05;;;5.30;;
67508;SDS011;54354;44.724;11.284;2023-12-07T07:59:29;8.70;;;5.65;;
67508;SDS011;54354;44.724;11.284;2023-12-07T08:01:56;14.07;;;6.10;;
67508;SDS011;54354;44.724;11.284;2023-12-07T08:04:22;7.85;;;5.25;;
67508;SDS011;54354;44.724;11.284;2023-12-07T08:06:56;9.52;;;5.30;;
67508;SDS011;54354;44.724;11.284;2023-12-07T08:09:21;14.98;;;5.70;;
67508;SDS011;54354;44.724;11.284;2023-12-07T08:11:47;11.23;;;5.30;;
67508;SDS011;54354;44.724;11.284;2023-12-07T08:14:13;11.57;;;4.93;;
67508;SDS011;54354;44.724;11.284;2023-12-07T08:16:47;10.65;;;5.45;;
67508;SDS011;54354;44.724;11.284;2023-12-07T08:19:16;9.60;;;7.00;;
67508;SDS011;54354;44.724;11.284;2023-12-07T08:21:45;9.45;;;6.25;;
67508;SDS011;54354;44.724;11.284;2023-12-07T08:24:13;10.52;;;5.95;;
67508;SDS011;54354;44.724;11.284;2023-12-07T08:26:44;10.73;;;5.68;;
67508;SDS011;54354;44.724;11.284;2023-12-07T08:29:10;7.93;;;5.68;;
67508;SDS011;54354;44.724;11.284;2023-12-07T08:31:40;10.02;;;6.45;;
67508;SDS011;54354;44.724;11.284;2023-12-07T08:34:06;11.95;;;7.10;;
67508;SDS011;54354;44.724;11.284;2023-12-07T08:36:32;10.77;;;6.65;;
67508;SDS011;54354;44.724;11.284;2023-12-07T08:38:58;11.02;;;6.70;;
67508;SDS011;54354;44.724;11.284;2023-12-07T08:41:27;9.35;;;6.18;;
67508;SDS011;54354;44.724;11.284;2023-12-07T08:43:53;11.45;;;5.97;;
67508;SDS011;54354;44.724;11.284;2023-12-07T08:46:21;12.02;;;6.63;;
67508;SDS011;54354;44.724;11.284;2023-12-07T08:48:47;14.40;;;8.10;;
67508;SDS011;54354;44.724;11.284;2023-12-07T08:51:15;16.77;;;7.95;;
67508;SDS011;54354;44.724;11.284;2023-12-07T08:53:41;15.20;;;7.88;;
67508;SDS011;54354;44.724;11.284;2023-12-07T08:56:07;12.00;;;6.85;;
67508;SDS011;54354;44.724;11.284;2023-12-07T08:58:38;7.60;;;6.05;;
67508;SDS011;54354;44.724;11.284;2023-12-07T09:01:04;10.10;;;5.93;;
67508;SDS011;54354;44.724;11.284;2023-12-07T09:03:39;10.27;;;6.53;;
67508;SDS011;54354;44.724;11.284;2023-12-07T09:06:08;10.30;;;6.18;;
67508;SDS011;54354;44.724;11.284;2023-12-07T09:08:37;11.70;;;6.55;;
67508;SDS011;54354;44.724;11.284;2023-12-07T09:11:11;9.02;;;6.53;;
67508;SDS011;54354;44.724;11.284;2023-12-07T09:13:42;8.95;;;7.50;;
67508;SDS011;54354;44.724;11.284;2023-12-07T09:16:08;11.00;;;7.05;;
67508;SDS011;54354;44.724;11.284;2023-12-07T09:18:37;11.68;;;7.60;;
67508;SDS011;54354;44.724;11.284;2023-12-07T09:21:06;12.80;;;8.85;;
67508;SDS011;54354;44.724;11.284;2023-12-07T09:23:35;13.85;;;8.25;;
67508;SDS011;54354;44.724;11.284;2023-12-07T09:26:02;10.07;;;7.45;;
67508;SDS011;54354;44.724;11.284;2023-12-07T09:28:29;13.75;;;8.18;;
67508;SDS011;54354;44.724;11.284;2023-12-07T09:30:57;11.32;;;7.75;;
67508;SDS011;54354;44.724;11.284;2023-12-07T09:33:22;8.95;;;7.65;;
67508;SDS011;54354;44.724;11.284;2023-12-07T09:35:48;16.85;;;8.20;;
67508;SDS011;54354;44.724;11.284;2023-12-07T09:38:16;15.20;;;7.93;;
67508;SDS011;54354;44.724;11.284;2023-12-07T09:40:45;11.23;;;8.57;;
67508;SDS011;54354;44.724;11.284;2023-12-07T09:43:20;10.77;;;8.75;;
67508;SDS011;54354;44.724;11.284;2023-12-07T09:45:49;15.25;;;9.88;;
67508;SDS011;54354;44.724;11.284;2023-12-07T09:48:19;15.05;;;9.75;;
67508;SDS011;54354;44.724;11.284;2023-12-07T09:50:49;13.63;;;9.85;;
67508;SDS011;54354;44.724;11.284;2023-12-07T09:53:15;12.65;;;9.73;;
67508;SDS011;54354;44.724;11.284;2023-12-07T09:55:46;13.93;;;10.38;;
67508;SDS011;54354;44.724;11.284;2023-12-07T09:58:12;11.77;;;10.18;;
67508;SDS011;54354;44.724;11.284;2023-12-07T10:00:38;14.77;;;10.73;;
67508;SDS011;54354;44.724;11.284;2023-12-07T10:03:07;12.82;;;10.77;;
67508;SDS011;54354;44.724;11.284;2023-12-07T10:05:58;13.68;;;10.32;;
67508;SDS011;54354;44.724;11.284;2023-12-07T10:08:25;14.50;;;10.88;;
67508;SDS011;54354;44.724;11.284;2023-12-07T10:13:33;12.25;;;10.95;;
67508;SDS011;54354;44.724;11.284;2023-12-07T10:16:09;14.73;;;10.80;;
67508;SDS011;54354;44.724;11.284;2023-12-07T10:18:40;16.23;;;10.80;;
67508;SDS011;54354;44.724;11.284;2023-12-07T10:21:12;14.20;;;11.02;;
67508;SDS011;54354;44.724;11.284;2023-12-07T10:23:43;15.38;;;11.73;;
67508;SDS011;54354;44.724;11.284;2023-12-07T10:26:13;13.55;;;11.23;;
67508;SDS011;54354;44.724;11.284;2023-12-07T10:28:49;18.92;;;12.27;;
67508;SDS011;54354;44.724;11.284;2023-12-07T10:31:18;16.40;;;12.55;;
67508;SDS011;54354;44.724;11.284;2023-12-07T10:33:49;14.38;;;12.02;;
67508;SDS011;54354;44.724;11.284;2023-12-07T10:36:18;15.07;;;12.73;;
67508;SDS011;54354;44.724;11.284;2023-12-07T10:38:51;14.45;;;12.55;;
67508;SDS011;54354;44.724;11.284;2023-12-07T10:41:17;15.50;;;12.95;;
67508;SDS011;54354;44.724;11.284;2023-12-07T10:43:53;18.52;;;13.48;;
67508;SDS011;54354;44.724;11.284;2023-12-07T10:46:24;17.27;;;13.55;;
67508;SDS011;54354;44.724;11.284;2023-12-07T10:48:59;21.80;;;13.82;;
67508;SDS011;54354;44.724;11.284;2023-12-07T10:51:34;17.25;;;14.23;;
67508;SDS011;54354;44.724;11.284;2023-12-07T10:54:05;21.38;;;16.08;;
67508;SDS011;54354;44.724;11.284;2023-12-07T10:56:43;26.02;;;18.83;;
67508;SDS011;54354;44.724;11.284;2023-12-07T10:59:17;22.42;;;18.35;;
67508;SDS011;54354;44.724;11.284;2023-12-07T11:01:44;31.25;;;25.42;;
67508;SDS011;54354;44.724;11.284;2023-12-07T11:04:13;32.17;;;25.75;;
67508;SDS011;54354;44.724;11.284;2023-12-07T11:06:40;38.22;;;27.33;;
67508;SDS011;54354;44.724;11.284;2023-12-07T11:09:12;34.42;;;26.45;;
67508;SDS011;54354;44.724;11.284;2023-12-07T11:11:47;36.25;;;27.13;;
67508;SDS011;54354;44.724;11.284;2023-12-07T11:14:23;42.47;;;28.67;;
67508;SDS011;54354;44.724;11.284;2023-12-07T11:16:52;35.38;;;26.65;;
67508;SDS011;54354;44.724;11.284;2023-12-07T11:22:10;30.83;;;24.75;;
67508;SDS011;54354;44.724;11.284;2023-12-07T11:24:38;32.50;;;24.23;;
67508;SDS011;54354;44.724;11.284;2023-12-07T11:27:17;32.08;;;24.77;;
67508;SDS011;54354;44.724;11.284;2023-12-07T11:29:45;30.30;;;22.90;;
67508;SDS011;54354;44.724;11.284;2023-12-07T11:32:13;28.83;;;23.65;;
67508;SDS011;54354;44.724;11.284;2023-12-07T11:34:41;32.17;;;24.40;;
67508;SDS011;54354;44.724;11.284;2023-12-07T11:37:09;29.95;;;23.85;;
67508;SDS011;54354;44.724;11.284;2023-12-07T11:39:37;29.67;;;24.55;;
67508;SDS011;54354;44.724;11.284;2023-12-07T11:42:11;29.60;;;24.05;;
67508;SDS011;54354;44.724;11.284;2023-12-07T11:44:43;31.58;;;24.42;;
67508;SDS011;54354;44.724;11.284;2023-12-07T11:47:18;31.73;;;24.20;;
67508;SDS011;54354;44.724;11.284;2023-12-07T11:49:47;32.65;;;23.83;;
67508;SDS011;54354;44.724;11.284;2023-12-07T11:52:15;27.40;;;22.27;;
67508;SDS011;54354;44.724;11.284;2023-12-07T11:54:43;31.40;;;23.27;;
67508;SDS011;54354;44.724;11.284;2023-12-07T11:57:17;27.63;;;22.25;;
67508;SDS011;54354;44.724;11.284;2023-12-07T11:59:45;28.55;;;21.85;;
67508;SDS011;54354;44.724;11.284;2023-12-07T12:02:18;27.27;;;22.45;;
67508;SDS011;54354;44.724;11.284;2023-12-07T12:04:48;28.05;;;22.70;;
67508;SDS011;54354;44.724;11.284;2023-12-07T12:07:15;27.52;;;21.73;;
67508;SDS011;54354;44.724;11.284;2023-12-07T12:09:44;30.90;;;22.90;;
67508;SDS011;54354;44.724;11.284;2023-12-07T12:12:11;28.15;;;22.85;;
67508;SDS011;54354;44.724;11.284;2023-12-07T12:14:41;28.58;;;22.25;;
67508;SDS011;54354;44.724;11.284;2023-12-07T12:17:08;28.25;;;22.08;;
67508;SDS011;54354;44.724;11.284;2023-12-07T12:19:42;25.95;;;21.65;;
67508;SDS011;54354;44.724;11.284;2023-12-07T12:22:08;26.27;;;21.52;;
67508;SDS011;54354;44.724;11.284;2023-12-07T12:24:37;27.30;;;21.65;;
67508;SDS011;54354;44.724;11.284;2023-12-07T12:27:05;25.35;;;20.48;;
67508;SDS011;54354;44.724;11.284;2023-12-07T12:29:33;24.75;;;20.85;;
67508;SDS011;54354;44.724;11.284;2023-12-07T12:31:59;27.48;;;20.33;;
67508;SDS011;54354;44.724;11.284;2023-12-07T12:34:29;28.38;;;21.45;;
67508;SDS011;54354;44.724;11.284;2023-12-07T12:36:57;27.38;;;21.30;;
67508;SDS011;54354;44.724;11.284;2023-12-07T12:39:28;28.25;;;20.52;;
67508;SDS011;54354;44.724;11.284;2023-12-07T12:41:57;26.48;;;21.60;;
67508;SDS011;54354;44.724;11.284;2023-12-07T12:44:24;27.05;;;22.02;;
67508;SDS011;54354;44.724;11.284;2023-12-07T12:46:54;27.73;;;22.48;;
67508;SDS011;54354;44.724;11.284;2023-12-07T12:49:20;26.85;;;21.27;;
67508;SDS011;54354;44.724;11.284;2023-12-07T12:51:50;26.52;;;21.75;;
67508;SDS011;54354;44.724;11.284;2023-12-07T12:54:16;28.75;;;22.13;;
67508;SDS011;54354;44.724;11.284;2023-12-07T12:56:44;27.80;;;21.83;;
67508;SDS011;54354;44.724;11.284;2023-12-07T12:59:15;28.23;;;22.40;;
67508;SDS011;54354;44.724;11.284;2023-12-07T13:01:44;28.90;;;23.23;;
67508;SDS011;54354;44.724;11.284;2023-12-07T13:04:13;28.92;;;21.63;;
67508;SDS011;54354;44.724;11.284;2023-12-07T13:06:45;30.42;;;23.98;;
67508;SDS011;54354;44.724;11.284;2023-12-07T13:09:13;29.33;;;22.92;;
67508;SDS011;54354;44.724;11.284;2023-12-07T13:11:41;28.50;;;22.08;;
67508;SDS011;54354;44.724;11.284;2023-12-07T13:14:14;29.05;;;21.92;;
67508;SDS011;54354;44.724;11.284;2023-12-07T13:16:43;27.27;;;22.08;;
67508;SDS011;54354;44.724;11.284;2023-12-07T13:19:17;30.10;;;22.75;;
67508;SDS011;54354;44.724;11.284;2023-12-07T13:21:46;28.17;;;22.55;;
67508;SDS011;54354;44.724;11.284;2023-12-07T13:24:12;29.20;;;23.38;;
67508;SDS011;54354;44.724;11.284;2023-12-07T13:26:44;34.13;;;22.58;;
67508;SDS011;54354;44.724;11.284;2023-12-07T13:29:15;30.33;;;22.30;;
67508;SDS011;54354;44.724;11.284;2023-12-07T13:31:42;26.83;;;22.23;;
67508;SDS011;54354;44.724;11.284;2023-12-07T13:34:11;29.83;;;21.73;;
67508;SDS011;54354;44.724;11.284;2023-12-07T13:36:41;27.13;;;22.42;;
67508;SDS011;54354;44.724;11.284;2023-12-07T13:39:07;32.88;;;23.42;;
67508;SDS011;54354;44.724;11.284;2023-12-07T13:41:37;28.70;;;22.50;;
67508;SDS011;54354;44.724;11.284;2023-12-07T13:44:03;27.27;;;22.85;;
67508;SDS011;54354;44.724;11.284;2023-12-07T13:49:06;28.25;;;23.70;;
67508;SDS011;54354;44.724;11.284;2023-12-07T13:51:39;27.55;;;22.88;;
67508;SDS011;54354;44.724;11.284;2023-12-07T13:54:06;31.05;;;23.30;;
67508;SDS011;54354;44.724;11.284;2023-12-07T13:56:39;29.90;;;23.02;;
67508;SDS011;54354;44.724;11.284;2023-12-07T13:59:09;32.13;;;23.10;;
67508;SDS011;54354;44.724;11.284;2023-12-07T14:01:38;29.70;;;22.80;;
67508;SDS011;54354;44.724;11.284;2023-12-07T14:04:06;31.67;;;23.75;;
67508;SDS011;54354;44.724;11.284;2023-12-07T14:06:36;26.52;;;22.88;;
67508;SDS011;54354;44.724;11.284;2023-12-07T14:09:07;28.08;;;23.73;;
67508;SDS011;54354;44.724;11.284;2023-12-07T14:11:33;29.58;;;23.13;;
67508;SDS011;54354;44.724;11.284;2023-12-07T14:14:00;30.77;;;23.83;;
67508;SDS011;54354;44.724;11.284;2023-12-07T14:16:29;29.83;;;23.95;;
67508;SDS011;54354;44.724;11.284;2023-12-07T14:18:56;29.95;;;24.42;;
67508;SDS011;54354;44.724;11.284;2023-12-07T14:21:23;32.03;;;25.67;;
67508;SDS011;54354;44.724;11.284;2023-12-07T14:23:53;32.75;;;25.08;;